Thursday, January 17, 2019, 6:59 AM EST
Back to Local

KRWI, Rocky Mount-wilson Airport

Location: Elm City, NC, United States Lat: 35.85
Local Time: 6:59 AM EST (11:59 GMT) Lon: -77.9
Time Zone: US/Eastern Elev: 160 ft

Show me the last for .
Show Decoded

2019-01-17 06:23 METAR KRWI 171123Z AUTO 00000KT 7SM BKN018 M01/M02 A3032 RMK AO2 T10061017 =
2019-01-17 05:53 METAR KRWI 171053Z AUTO 03004KT 7SM CLR M01/M02 A3031 RMK AO2 SLP266 T10111022 =
2019-01-17 05:29 METAR KRWI 171029Z AUTO 02005KT 8SM SCT014 M01/M02 A3031 RMK AO2 T10111022 =
2019-01-17 05:09 METAR KRWI 171009Z AUTO 02005KT 9SM BKN014 M01/M02 A3030 RMK AO2 T10111017 =
2019-01-17 04:53 METAR KRWI 170953Z AUTO 02004KT 10SM FEW014 M01/M02 A3030 RMK AO2 SLP261
                 T10111022 =
2019-01-17 03:53 METAR KRWI 170853Z AUTO 00000KT 10SM CLR M01/M02 A3031 RMK AO2 SLP264 T10111017
                 51009 =
2019-01-17 02:53 METAR KRWI 170753Z AUTO 03003KT 10SM CLR M01/M02 A3031 RMK AO2 SLP264 T10111022
                 =
2019-01-17 01:53 METAR KRWI 170653Z AUTO 02005KT 10SM CLR M01/M02 A3029 RMK AO2 SLP259 T10061022
                 =
2019-01-17 00:53 METAR KRWI 170553Z AUTO 02005KT 10SM CLR 01/M01 A3028 RMK AO2 SLP255 T00111011
                 10050 21006 51007 =
2019-01-16 23:53 METAR KRWI 170453Z AUTO 36005KT 10SM CLR 01/M02 A3028 RMK AO2 SLP256 T00061017
                 401281039 =
2019-01-16 22:53 METAR KRWI 170353Z AUTO 36004KT 10SM CLR 01/M01 A3028 RMK AO2 SLP253 T00111006 =
2019-01-16 21:53 METAR KRWI 170253Z AUTO 00000KT 10SM CLR 01/01 A3026 RMK AO2 SLP250 T00110006
                 53016 =
2019-01-16 20:53 METAR KRWI 170153Z AUTO 00000KT 10SM CLR 03/01 A3026 RMK AO2 SLP247 T00280011 =
2019-01-16 19:53 METAR KRWI 170053Z AUTO 00000KT 10SM CLR 02/01 A3023 RMK AO2 SLP237 T00220006 =
2019-01-16 18:53 METAR KRWI 162353Z AUTO 00000KT 10SM CLR 05/02 A3022 RMK AO2 SLP234 T00500017
                 10128 20044 53022 =
2019-01-16 17:53 METAR KRWI 162253Z AUTO 34004KT 10SM CLR 08/00 A3018 RMK AO2 SLP222 T00780000 =
2019-01-16 16:53 METAR KRWI 162153Z AUTO 00000KT 10SM CLR 11/00 A3016 RMK AO2 SLP214 T01110000 =
2019-01-16 15:53 METAR KRWI 162053Z AUTO 31007KT 10SM CLR 13/00 A3015 RMK AO2 SLP211 T01280000
                 53001 =
2019-01-16 14:53 METAR KRWI 161953Z AUTO 26006KT 10SM CLR 13/01 A3014 RMK AO2 SLP207 T01280011 =
2019-01-16 13:53 METAR KRWI 161853Z AUTO 26007KT 220V290 10SM CLR 12/01 A3014 RMK AO2 SLP208
                 T01170006 =
2019-01-16 12:53 METAR KRWI 161753Z AUTO 27009KT 10SM CLR 12/01 A3015 RMK AO2 SLP210 I6001
                 T01170006 10117 21039 58021 =
2019-01-16 11:53 METAR KRWI 161653Z AUTO 24008KT 210V280 10SM CLR 10/02 A3019 RMK AO2 SLP222
                 T01000022 =
2019-01-16 10:53 METAR KRWI 161553Z AUTO 23006KT 10SM CLR 08/02 A3022 RMK AO2 SLP234 T00780022 =
2019-01-16 09:53 METAR KRWI 161453Z AUTO 20008KT 10SM CLR 05/01 A3021 RMK AO2 SLP232 I3001
                 T00500011 53004 =
2019-01-16 08:53 METAR KRWI 161353Z AUTO 21005KT 6SM BR CLR 01/M01 A3020 RMK AO2 SLP228 I1001
                 T00061006 =
2019-01-16 08:40 METAR KRWI 161340Z AUTO 21004KT 3SM BR CLR 00/M01 A3021 RMK AO2 I1001 T00001006
                 =
2019-01-16 08:00 METAR KRWI 161300Z AUTO 20003KT 2SM BR CLR M03/M03 A3020 RMK AO2 T10281033 =
2019-01-16 07:53 METAR KRWI 161253Z AUTO 20004KT 1 3/4SM BR CLR M03/M04 A3020 RMK AO2 SLP229
                 I1000 T10331039 =
2019-01-16 07:11 METAR KRWI 161211Z AUTO 00000KT 1 1/4SM BR CLR M03/M04 A3020 RMK AO2 I1000
                 T10281039 =

Support USWX by starting your Amazon purchase here.